Huntersville, NC

12:22 PM EDT on March 27, 2015 (GMT -0400)
Stumptown Rd. | | Change Station
CLOSE
Current Station
Personal Weather Station
Location: Huntersville, NC
Elevation: 784 ft
Nearby Weather Stations

Elev 784 ft 35.42 °N, 80.85 °W | Updated 59 seconds ago

Overcast
Overcast
46.8 °F
Feels Like 45 °F
N
4.5
Wind Variable Wind from NE
Gusts 9.2 mph

Today
High -- | Low -- °F
--% Chance of Precip.
Yesterday
High -- | Low -- °F
Precip. -- in
7:17 AM 7:40 PM
First Quarter, 54% visible
Pressure 29.80 in
Visibility 10.0 miles
Clouds Scattered Clouds 2000 ft
Overcast 2700 ft
Windchill 45 °F
Dew Point 44 °F
Humidity 90%
Rainfall 0.25 in
Snow Depth Not available.
UV 2 out of 12
Pollen 4.70 out of 12
Air Quality Not available.
Flu Activity Not available.
METAR KJQF 271550Z 02008G14KT 10SM SCT020 OVC027 08/06 A2980

More Conditions Fewer Conditions

Pressure 29.80 in
Visibility 10.0 miles
Clouds Scattered Clouds 2000 ft
Overcast 2700 ft
Windchill 45 °F
Dew Point 44 °F
Humidity 90%
Rainfall 0.25 in
Snow Depth Not available.
UV 2 out of 12
Pollen 4.70 out of 12
Air Quality Not available.
Flu Activity Not available.
METAR KJQF 271550Z 02008G14KT 10SM SCT020 OVC027 08/06 A2980

More Conditions Fewer Conditions

10-Day Weather Forecast

Almanac

Astronomy

Mar. 27, 2015 Rise Set
Actual Time
Civil Twilight
Nautical Twilight
Astronomical Twilight
Moon
Length of Visible Light
Length of Day
Tomorrow will be .
, % of the Moon is Illuminated

Today's Extremes

State Highs State Lows

Community

WunderPhotos

Upload Photos

1,808,770 photos uploaded!

WunderBlogs® & News

Nearby

Air Quality

  Air Quality AQ Index Pollutant
Not available.

Snow Depth

Station Depth Elevation

Earthquake Activity

City Distance Mag. Time & Date
Minimum magnitude displayed is 2.5.

Coastal Water Temperatures

Place Temperature

Stations

Nearby Weather Stations

Station Location Temp. Windchill Dew Point Humidity Wind Precip. Elev Updated Type